sensor_id;sensor_type;location;lat;lon;timestamp;temperature;humidity
23723;DHT22;12042;52.136;5.584;2022-11-15T06:27:14;11.00;99.90
23723;DHT22;12042;52.136;5.584;2022-11-15T06:29:39;11.00;99.90
23723;DHT22;12042;52.136;5.584;2022-11-15T06:32:05;11.00;99.90
23723;DHT22;12042;52.136;5.584;2022-11-15T06:34:30;11.10;99.90
23723;DHT22;12042;52.136;5.584;2022-11-15T06:36:56;11.30;99.90
23723;DHT22;12042;52.136;5.584;2022-11-15T06:39:22;11.00;99.90
23723;DHT22;12042;52.136;5.584;2022-11-15T06:41:47;11.10;99.90
23723;DHT22;12042;52.136;5.584;2022-11-15T06:44:13;11.30;99.90
23723;DHT22;12042;52.136;5.584;2022-11-15T06:46:38;11.30;99.90
23723;DHT22;12042;52.136;5.584;2022-11-15T06:49:04;11.30;99.90
23723;DHT22;12042;52.136;5.584;2022-11-15T06:51:32;11.20;99.90
23723;DHT22;12042;52.136;5.584;2022-11-15T06:53:57;11.20;99.90
23723;DHT22;12042;52.136;5.584;2022-11-15T06:56:23;11.30;99.90
23723;DHT22;12042;52.136;5.584;2022-11-15T06:58:48;11.20;99.90
23723;DHT22;12042;52.136;5.584;2022-11-15T07:01:14;11.30;99.90
23723;DHT22;12042;52.136;5.584;2022-11-15T07:03:41;11.30;99.90
23723;DHT22;12042;52.136;5.584;2022-11-15T07:06:07;11.30;99.90
23723;DHT22;12042;52.136;5.584;2022-11-15T07:08:34;11.20;99.90
23723;DHT22;12042;52.136;5.584;2022-11-15T07:11:02;11.20;99.90
23723;DHT22;12042;52.136;5.584;2022-11-15T07:13:30;11.30;99.90
23723;DHT22;12042;52.136;5.584;2022-11-15T07:16:01;11.10;99.90
23723;DHT22;12042;52.136;5.584;2022-11-15T07:18:27;11.30;99.90
23723;DHT22;12042;52.136;5.584;2022-11-15T07:20:52;11.30;99.90
23723;DHT22;12042;52.136;5.584;2022-11-15T07:23:19;11.30;99.90
23723;DHT22;12042;52.136;5.584;2022-11-15T07:25:44;11.30;99.90
23723;DHT22;12042;52.136;5.584;2022-11-15T07:28:10;11.30;99.90
23723;DHT22;12042;52.136;5.584;2022-11-15T07:30:36;11.30;99.90
23723;DHT22;12042;52.136;5.584;2022-11-15T07:33:01;11.30;99.90
23723;DHT22;12042;52.136;5.584;2022-11-15T07:35:28;11.40;99.90
23723;DHT22;12042;52.136;5.584;2022-11-15T07:37:58;11.40;99.90
23723;DHT22;12042;52.136;5.584;2022-11-15T07:40:25;11.40;99.90
23723;DHT22;12042;52.136;5.584;2022-11-15T07:42:52;11.40;99.90
23723;DHT22;12042;52.136;5.584;2022-11-15T07:45:18;11.40;99.90
23723;DHT22;12042;52.136;5.584;2022-11-15T07:47:47;11.30;99.90
23723;DHT22;12042;52.136;5.584;2022-11-15T07:50:13;11.30;99.90
23723;DHT22;12042;52.136;5.584;2022-11-15T07:52:38;11.40;99.90
23723;DHT22;12042;52.136;5.584;2022-11-15T07:55:04;11.40;99.90
23723;DHT22;12042;52.136;5.584;2022-11-15T07:57:30;11.40;99.90
23723;DHT22;12042;52.136;5.584;2022-11-15T07:59:56;11.40;99.90
23723;DHT22;12042;52.136;5.584;2022-11-15T08:02:21;11.40;99.90
23723;DHT22;12042;52.136;5.584;2022-11-15T08:04:48;11.40;99.90
23723;DHT22;12042;52.136;5.584;2022-11-15T08:07:14;11.40;99.90
23723;DHT22;12042;52.136;5.584;2022-11-15T08:09:39;11.40;99.90
23723;DHT22;12042;52.136;5.584;2022-11-15T08:12:05;11.40;99.90
23723;DHT22;12042;52.136;5.584;2022-11-15T08:14:31;11.40;99.90
23723;DHT22;12042;52.136;5.584;2022-11-15T08:16:56;11.20;99.90
23723;DHT22;12042;52.136;5.584;2022-11-15T08:19:22;11.40;99.90
23723;DHT22;12042;52.136;5.584;2022-11-15T08:21:48;11.40;99.90
23723;DHT22;12042;52.136;5.584;2022-11-15T08:24:14;11.40;99.90
23723;DHT22;12042;52.136;5.584;2022-11-15T08:26:40;11.50;99.90
23723;DHT22;12042;52.136;5.584;2022-11-15T08:29:06;11.50;99.90
23723;DHT22;12042;52.136;5.584;2022-11-15T08:31:34;11.30;99.90
23723;DHT22;12042;52.136;5.584;2022-11-15T08:34:00;11.50;99.90
23723;DHT22;12042;52.136;5.584;2022-11-15T08:36:26;11.50;99.90
23723;DHT22;12042;52.136;5.584;2022-11-15T08:38:51;11.50;99.90
23723;DHT22;12042;52.136;5.584;2022-11-15T08:41:30;11.50;99.90
23723;DHT22;12042;52.136;5.584;2022-11-15T08:43:56;11.60;99.90
23723;DHT22;12042;52.136;5.584;2022-11-15T08:46:21;11.60;99.90
23723;DHT22;12042;52.136;5.584;2022-11-15T08:48:47;11.60;99.90
23723;DHT22;12042;52.136;5.584;2022-11-15T08:51:12;11.70;99.90
23723;DHT22;12042;52.136;5.584;2022-11-15T08:53:38;11.70;99.90
23723;DHT22;12042;52.136;5.584;2022-11-15T08:56:10;11.70;99.90
23723;DHT22;12042;52.136;5.584;2022-11-15T08:58:36;11.70;99.90
23723;DHT22;12042;52.136;5.584;2022-11-15T09:01:02;11.70;99.90
23723;DHT22;12042;52.136;5.584;2022-11-15T09:03:28;11.70;99.90
23723;DHT22;12042;52.136;5.584;2022-11-15T09:06:00;11.70;99.90
23723;DHT22;12042;52.136;5.584;2022-11-15T09:08:29;11.70;99.90
23723;DHT22;12042;52.136;5.584;2022-11-15T09:10:55;11.80;99.90
23723;DHT22;12042;52.136;5.584;2022-11-15T09:13:21;11.80;99.90
23723;DHT22;12042;52.136;5.584;2022-11-15T09:15:47;11.80;99.90
23723;DHT22;12042;52.136;5.584;2022-11-15T09:18:13;11.90;99.90
23723;DHT22;12042;52.136;5.584;2022-11-15T09:20:38;11.90;99.90
23723;DHT22;12042;52.136;5.584;2022-11-15T09:23:04;11.90;99.90
23723;DHT22;12042;52.136;5.584;2022-11-15T09:25:31;12.00;99.90
23723;DHT22;12042;52.136;5.584;2022-11-15T09:27:57;12.00;99.90
23723;DHT22;12042;52.136;5.584;2022-11-15T09:30:24;12.00;99.90
23723;DHT22;12042;52.136;5.584;2022-11-15T09:32:49;11.90;99.90
23723;DHT22;12042;52.136;5.584;2022-11-15T09:35:15;11.90;99.90
23723;DHT22;12042;52.136;5.584;2022-11-15T09:37:41;11.90;99.90
23723;DHT22;12042;52.136;5.584;2022-11-15T09:40:13;11.90;99.90
23723;DHT22;12042;52.136;5.584;2022-11-15T09:43:02;11.90;99.90
23723;DHT22;12042;52.136;5.584;2022-11-15T09:45:41;11.90;99.90
23723;DHT22;12042;52.136;5.584;2022-11-15T09:50:50;12.00;99.90
23723;DHT22;12042;52.136;5.584;2022-11-15T09:53:37;12.00;99.90
23723;DHT22;12042;52.136;5.584;2022-11-15T09:56:16;12.00;99.90
23723;DHT22;12042;52.136;5.584;2022-11-15T09:58:53;12.00;99.90
23723;DHT22;12042;52.136;5.584;2022-11-15T10:03:56;12.00;99.90
23723;DHT22;12042;52.136;5.584;2022-11-15T10:06:25;12.00;99.90
23723;DHT22;12042;52.136;5.584;2022-11-15T10:09:04;12.00;99.90
23723;DHT22;12042;52.136;5.584;2022-11-15T10:11:35;12.10;99.90
23723;DHT22;12042;52.136;5.584;2022-11-15T10:14:05;12.20;99.90
23723;DHT22;12042;52.136;5.584;2022-11-15T10:22:28;12.40;99.90
23723;DHT22;12042;52.136;5.584;2022-11-15T10:27:39;12.30;99.90
23723;DHT22;12042;52.136;5.584;2022-11-15T10:30:13;12.30;99.90
23723;DHT22;12042;52.136;5.584;2022-11-15T10:32:41;12.30;99.90
23723;DHT22;12042;52.136;5.584;2022-11-15T10:35:19;12.30;99.90
23723;DHT22;12042;52.136;5.584;2022-11-15T10:37:45;12.30;99.90
23723;DHT22;12042;52.136;5.584;2022-11-15T10:40:22;12.40;99.90
23723;DHT22;12042;52.136;5.584;2022-11-15T10:45:34;12.40;99.90
23723;DHT22;12042;52.136;5.584;2022-11-15T10:50:39;12.50;99.90
23723;DHT22;12042;52.136;5.584;2022-11-15T10:53:15;12.50;99.90
23723;DHT22;12042;52.136;5.584;2022-11-15T10:55:47;12.60;99.90
23723;DHT22;12042;52.136;5.584;2022-11-15T11:00:52;12.60;99.90
23723;DHT22;12042;52.136;5.584;2022-11-15T11:04:01;12.60;99.90
23723;DHT22;12042;52.136;5.584;2022-11-15T11:06:27;12.50;99.90
23723;DHT22;12042;52.136;5.584;2022-11-15T11:08:55;12.50;99.90
23723;DHT22;12042;52.136;5.584;2022-11-15T11:11:21;12.50;99.90
23723;DHT22;12042;52.136;5.584;2022-11-15T11:13:47;12.50;99.90
23723;DHT22;12042;52.136;5.584;2022-11-15T11:18:47;12.70;99.90
23723;DHT22;12042;52.136;5.584;2022-11-15T11:21:18;12.70;99.90
23723;DHT22;12042;52.136;5.584;2022-11-15T11:26:18;12.70;99.90
23723;DHT22;12042;52.136;5.584;2022-11-15T11:31:47;12.80;99.90
23723;DHT22;12042;52.136;5.584;2022-11-15T11:34:24;12.90;99.90
23723;DHT22;12042;52.136;5.584;2022-11-15T11:37:09;12.90;99.90
23723;DHT22;12042;52.136;5.584;2022-11-15T11:42:22;12.80;99.90
23723;DHT22;12042;52.136;5.584;2022-11-15T11:45:15;12.80;99.90
23723;DHT22;12042;52.136;5.584;2022-11-15T11:47:51;12.70;99.90
23723;DHT22;12042;52.136;5.584;2022-11-15T11:50:25;12.60;99.90
23723;DHT22;12042;52.136;5.584;2022-11-15T11:53:12;12.70;99.90
23723;DHT22;12042;52.136;5.584;2022-11-15T11:55:47;12.50;99.90
23723;DHT22;12042;52.136;5.584;2022-11-15T11:58:34;12.60;99.90
23723;DHT22;12042;52.136;5.584;2022-11-15T12:04:01;12.60;99.90
23723;DHT22;12042;52.136;5.584;2022-11-15T12:06:50;12.70;99.90
23723;DHT22;12042;52.136;5.584;2022-11-15T12:09:36;12.70;99.90
23723;DHT22;12042;52.136;5.584;2022-11-15T12:15:00;13.00;99.90
23723;DHT22;12042;52.136;5.584;2022-11-15T12:17:29;13.10;99.90
23723;DHT22;12042;52.136;5.584;2022-11-15T12:19:59;13.10;99.90
23723;DHT22;12042;52.136;5.584;2022-11-15T12:22:42;13.00;99.90
23723;DHT22;12042;52.136;5.584;2022-11-15T12:25:30;13.20;99.90
23723;DHT22;12042;52.136;5.584;2022-11-15T12:28:05;13.20;99.90
23723;DHT22;12042;52.136;5.584;2022-11-15T12:30:55;13.10;99.90
23723;DHT22;12042;52.136;5.584;2022-11-15T12:33:42;13.10;99.90
23723;DHT22;12042;52.136;5.584;2022-11-15T12:36:09;13.10;99.90
23723;DHT22;12042;52.136;5.584;2022-11-15T12:41:29;13.20;99.90
23723;DHT22;12042;52.136;5.584;2022-11-15T12:43:56;13.10;99.90
23723;DHT22;12042;52.136;5.584;2022-11-15T12:48:59;13.10;99.90
23723;DHT22;12042;52.136;5.584;2022-11-15T12:59:52;13.40;99.90
23723;DHT22;12042;52.136;5.584;2022-11-15T13:02:46;13.50;99.90
23723;DHT22;12042;52.136;5.584;2022-11-15T13:17:46;13.10;99.90
23723;DHT22;12042;52.136;5.584;2022-11-15T13:28:02;13.10;99.90
23723;DHT22;12042;52.136;5.584;2022-11-15T13:30:30;13.20;99.90
23723;DHT22;12042;52.136;5.584;2022-11-15T13:33:00;13.10;99.90
23723;DHT22;12042;52.136;5.584;2022-11-15T13:35:31;13.20;99.90
23723;DHT22;12042;52.136;5.584;2022-11-15T13:38:03;13.10;99.90
23723;DHT22;12042;52.136;5.584;2022-11-15T13:40:34;13.10;99.90
23723;DHT22;12042;52.136;5.584;2022-11-15T13:45:56;13.00;99.90
23723;DHT22;12042;52.136;5.584;2022-11-15T13:48:29;13.00;99.90
23723;DHT22;12042;52.136;5.584;2022-11-15T13:50:56;13.00;99.90
23723;DHT22;12042;52.136;5.584;2022-11-15T13:53:23;12.90;99.90
23723;DHT22;12042;52.136;5.584;2022-11-15T13:55:48;12.90;99.90
23723;DHT22;12042;52.136;5.584;2022-11-15T13:58:14;12.80;99.90
23723;DHT22;12042;52.136;5.584;2022-11-15T14:00:42;12.90;99.90
23723;DHT22;12042;52.136;5.584;2022-11-15T14:03:17;12.60;99.90
23723;DHT22;12042;52.136;5.584;2022-11-15T14:05:43;12.70;99.90
23723;DHT22;12042;52.136;5.584;2022-11-15T14:10:42;12.60;99.90
23723;DHT22;12042;52.136;5.584;2022-11-15T14:13:30;12.60;99.90
23723;DHT22;12042;52.136;5.584;2022-11-15T14:16:13;12.60;99.90
23723;DHT22;12042;52.136;5.584;2022-11-15T14:18:52;12.60;99.90
23723;DHT22;12042;52.136;5.584;2022-11-15T14:21:19;12.50;99.90
23723;DHT22;12042;52.136;5.584;2022-11-15T14:23:45;12.50;99.90
23723;DHT22;12042;52.136;5.584;2022-11-15T14:26:32;12.50;99.90
23723;DHT22;12042;52.136;5.584;2022-11-15T14:29:21;12.50;99.90
23723;DHT22;12042;52.136;5.584;2022-11-15T14:31:47;12.40;99.90
23723;DHT22;12042;52.136;5.584;2022-11-15T14:34:13;12.40;99.90
23723;DHT22;12042;52.136;5.584;2022-11-15T14:36:39;12.40;99.90
23723;DHT22;12042;52.136;5.584;2022-11-15T14:39:04;12.40;99.90
23723;DHT22;12042;52.136;5.584;2022-11-15T14:41:35;12.50;99.90
23723;DHT22;12042;52.136;5.584;2022-11-15T14:44:04;12.40;99.90
23723;DHT22;12042;52.136;5.584;2022-11-15T14:46:30;12.40;99.90
23723;DHT22;12042;52.136;5.584;2022-11-15T14:48:56;12.40;99.90
23723;DHT22;12042;52.136;5.584;2022-11-15T14:51:21;12.40;99.90
23723;DHT22;12042;52.136;5.584;2022-11-15T14:53:47;12.20;99.90
23723;DHT22;12042;52.136;5.584;2022-11-15T14:56:13;12.20;99.90
23723;DHT22;12042;52.136;5.584;2022-11-15T14:58:40;12.30;99.90
23723;DHT22;12042;52.136;5.584;2022-11-15T15:01:24;12.40;99.90
23723;DHT22;12042;52.136;5.584;2022-11-15T15:03:50;12.40;99.90
23723;DHT22;12042;52.136;5.584;2022-11-15T15:06:22;12.40;99.90
23723;DHT22;12042;52.136;5.584;2022-11-15T15:08:48;12.40;99.90
23723;DHT22;12042;52.136;5.584;2022-11-15T15:11:21;12.40;99.90
23723;DHT22;12042;52.136;5.584;2022-11-15T15:13:47;12.40;99.90
23723;DHT22;12042;52.136;5.584;2022-11-15T15:16:12;12.40;99.90
23723;DHT22;12042;52.136;5.584;2022-11-15T15:18:38;12.40;99.90
23723;DHT22;12042;52.136;5.584;2022-11-15T15:21:20;12.40;99.90
23723;DHT22;12042;52.136;5.584;2022-11-15T15:23:47;12.40;99.90
23723;DHT22;12042;52.136;5.584;2022-11-15T15:26:12;12.30;99.90
23723;DHT22;12042;52.136;5.584;2022-11-15T15:28:38;12.40;99.90
23723;DHT22;12042;52.136;5.584;2022-11-15T15:31:04;12.40;99.90
23723;DHT22;12042;52.136;5.584;2022-11-15T15:33:31;12.50;99.90
23723;DHT22;12042;52.136;5.584;2022-11-15T15:35:57;12.40;99.90
23723;DHT22;12042;52.136;5.584;2022-11-15T15:38:22;12.50;99.90
23723;DHT22;12042;52.136;5.584;2022-11-15T15:40:48;12.50;99.90
23723;DHT22;12042;52.136;5.584;2022-11-15T15:43:13;12.50;99.90
23723;DHT22;12042;52.136;5.584;2022-11-15T15:45:40;12.50;99.90
23723;DHT22;12042;52.136;5.584;2022-11-15T15:48:15;12.50;99.90
23723;DHT22;12042;52.136;5.584;2022-11-15T15:50:41;12.50;99.90
23723;DHT22;12042;52.136;5.584;2022-11-15T15:53:11;12.50;99.90
23723;DHT22;12042;52.136;5.584;2022-11-15T15:55:37;12.50;99.90
23723;DHT22;12042;52.136;5.584;2022-11-15T15:58:04;12.50;99.90
23723;DHT22;12042;52.136;5.584;2022-11-15T16:00:30;12.50;99.90
23723;DHT22;12042;52.136;5.584;2022-11-15T16:02:58;12.50;99.90
23723;DHT22;12042;52.136;5.584;2022-11-15T16:05:24;12.50;99.90
23723;DHT22;12042;52.136;5.584;2022-11-15T16:07:50;12.50;99.90
23723;DHT22;12042;52.136;5.584;2022-11-15T16:10:23;12.60;99.90
23723;DHT22;12042;52.136;5.584;2022-11-15T16:12:50;12.40;99.90
23723;DHT22;12042;52.136;5.584;2022-11-15T16:15:17;12.60;99.90
23723;DHT22;12042;52.136;5.584;2022-11-15T16:17:50;12.50;99.90
23723;DHT22;12042;52.136;5.584;2022-11-15T16:20:40;12.70;99.90
23723;DHT22;12042;52.136;5.584;2022-11-15T16:23:09;12.70;99.90
23723;DHT22;12042;52.136;5.584;2022-11-15T16:25:51;12.70;99.90
23723;DHT22;12042;52.136;5.584;2022-11-15T16:30:45;12.70;99.90
23723;DHT22;12042;52.136;5.584;2022-11-15T16:33:11;12.70;99.90
23723;DHT22;12042;52.136;5.584;2022-11-15T16:35:37;12.70;99.90
23723;DHT22;12042;52.136;5.584;2022-11-15T16:38:02;12.70;99.90
23723;DHT22;12042;52.136;5.584;2022-11-15T16:40:33;12.70;99.90
23723;DHT22;12042;52.136;5.584;2022-11-15T16:42:59;12.70;99.90
23723;DHT22;12042;52.136;5.584;2022-11-15T16:45:27;12.70;99.90
23723;DHT22;12042;52.136;5.584;2022-11-15T16:47:54;12.70;99.90
23723;DHT22;12042;52.136;5.584;2022-11-15T16:50:22;12.70;99.90
23723;DHT22;12042;52.136;5.584;2022-11-15T16:52:51;12.80;99.90
23723;DHT22;12042;52.136;5.584;2022-11-15T16:55:17;12.80;99.90
23723;DHT22;12042;52.136;5.584;2022-11-15T16:57:43;12.80;99.90
23723;DHT22;12042;52.136;5.584;2022-11-15T17:00:11;12.70;99.90
23723;DHT22;12042;52.136;5.584;2022-11-15T17:02:37;12.80;99.90
23723;DHT22;12042;52.136;5.584;2022-11-15T17:05:03;12.80;99.90
23723;DHT22;12042;52.136;5.584;2022-11-15T17:07:29;12.80;99.90
23723;DHT22;12042;52.136;5.584;2022-11-15T17:09:54;12.80;99.90
23723;DHT22;12042;52.136;5.584;2022-11-15T17:12:20;12.80;99.90
23723;DHT22;12042;52.136;5.584;2022-11-15T17:14:45;12.80;99.90
23723;DHT22;12042;52.136;5.584;2022-11-15T17:17:11;12.80;99.90
23723;DHT22;12042;52.136;5.584;2022-11-15T17:19:37;12.70;99.90
23723;DHT22;12042;52.136;5.584;2022-11-15T17:22:02;12.70;99.90
23723;DHT22;12042;52.136;5.584;2022-11-15T17:24:28;12.60;99.90
23723;DHT22;12042;52.136;5.584;2022-11-15T17:26:54;12.60;99.90
23723;DHT22;12042;52.136;5.584;2022-11-15T17:29:19;12.60;99.90
23723;DHT22;12042;52.136;5.584;2022-11-15T17:31:45;12.50;99.90
23723;DHT22;12042;52.136;5.584;2022-11-15T17:34:10;12.50;99.90
23723;DHT22;12042;52.136;5.584;2022-11-15T17:36:36;12.50;99.90
23723;DHT22;12042;52.136;5.584;2022-11-15T17:39:03;12.40;99.90
23723;DHT22;12042;52.136;5.584;2022-11-15T17:41:29;12.40;99.90
23723;DHT22;12042;52.136;5.584;2022-11-15T17:43:58;12.30;99.90
23723;DHT22;12042;52.136;5.584;2022-11-15T17:46:25;12.30;99.90
23723;DHT22;12042;52.136;5.584;2022-11-15T17:48:51;12.20;99.90
23723;DHT22;12042;52.136;5.584;2022-11-15T17:51:17;12.20;99.90
23723;DHT22;12042;52.136;5.584;2022-11-15T17:53:45;12.20;99.90
23723;DHT22;12042;52.136;5.584;2022-11-15T17:56:15;12.20;99.90
23723;DHT22;12042;52.136;5.584;2022-11-15T17:58:46;12.10;99.90
23723;DHT22;12042;52.136;5.584;2022-11-15T18:03:50;12.10;99.90
23723;DHT22;12042;52.136;5.584;2022-11-15T18:06:16;12.10;99.90
23723;DHT22;12042;52.136;5.584;2022-11-15T18:08:44;12.10;99.90
23723;DHT22;12042;52.136;5.584;2022-11-15T18:11:12;12.00;99.90
23723;DHT22;12042;52.136;5.584;2022-11-15T18:13:39;12.00;99.90
23723;DHT22;12042;52.136;5.584;2022-11-15T18:16:10;12.00;99.90
23723;DHT22;12042;52.136;5.584;2022-11-15T18:18:36;11.90;99.90
23723;DHT22;12042;52.136;5.584;2022-11-15T18:21:03;11.90;99.90
23723;DHT22;12042;52.136;5.584;2022-11-15T18:23:29;11.90;99.90
23723;DHT22;12042;52.136;5.584;2022-11-15T18:25:55;11.90;99.90
23723;DHT22;12042;52.136;5.584;2022-11-15T18:28:21;11.90;99.90
23723;DHT22;12042;52.136;5.584;2022-11-15T18:30:46;11.90;99.90
23723;DHT22;12042;52.136;5.584;2022-11-15T18:33:12;11.90;99.90
23723;DHT22;12042;52.136;5.584;2022-11-15T18:35:38;11.90;99.90
23723;DHT22;12042;52.136;5.584;2022-11-15T18:38:03;11.90;99.90
23723;DHT22;12042;52.136;5.584;2022-11-15T18:40:29;11.90;99.90
23723;DHT22;12042;52.136;5.584;2022-11-15T18:42:55;11.80;99.90
23723;DHT22;12042;52.136;5.584;2022-11-15T18:45:20;11.80;99.90
23723;DHT22;12042;52.136;5.584;2022-11-15T18:47:46;11.80;99.90
23723;DHT22;12042;52.136;5.584;2022-11-15T18:50:11;11.80;99.90
23723;DHT22;12042;52.136;5.584;2022-11-15T18:52:37;11.80;99.90
23723;DHT22;12042;52.136;5.584;2022-11-15T18:55:03;11.70;99.90
23723;DHT22;12042;52.136;5.584;2022-11-15T18:57:28;11.70;99.90
23723;DHT22;12042;52.136;5.584;2022-11-15T18:59:54;11.70;99.90
23723;DHT22;12042;52.136;5.584;2022-11-15T19:02:19;11.70;99.90
23723;DHT22;12042;52.136;5.584;2022-11-15T19:04:45;11.70;99.90
23723;DHT22;12042;52.136;5.584;2022-11-15T19:07:10;11.70;99.90
23723;DHT22;12042;52.136;5.584;2022-11-15T19:09:36;11.70;99.90
23723;DHT22;12042;52.136;5.584;2022-11-15T19:12:03;11.70;99.90
23723;DHT22;12042;52.136;5.584;2022-11-15T19:14:29;11.60;99.90
23723;DHT22;12042;52.136;5.584;2022-11-15T19:16:54;11.60;99.90
23723;DHT22;12042;52.136;5.584;2022-11-15T19:19:25;11.60;99.90
23723;DHT22;12042;52.136;5.584;2022-11-15T19:21:53;11.60;99.90
23723;DHT22;12042;52.136;5.584;2022-11-15T19:24:19;11.70;99.90
23723;DHT22;12042;52.136;5.584;2022-11-15T19:26:44;11.60;99.90
23723;DHT22;12042;52.136;5.584;2022-11-15T19:29:10;11.60;99.90
23723;DHT22;12042;52.136;5.584;2022-11-15T19:31:36;11.60;99.90
23723;DHT22;12042;52.136;5.584;2022-11-15T19:34:03;11.60;99.90
23723;DHT22;12042;52.136;5.584;2022-11-15T19:36:31;11.60;99.90
23723;DHT22;12042;52.136;5.584;2022-11-15T19:38:59;11.60;99.90
23723;DHT22;12042;52.136;5.584;2022-11-15T19:41:25;11.70;99.90
23723;DHT22;12042;52.136;5.584;2022-11-15T19:43:51;11.70;99.90
23723;DHT22;12042;52.136;5.584;2022-11-15T19:46:18;11.70;99.90
23723;DHT22;12042;52.136;5.584;2022-11-15T19:48:45;11.70;99.90
23723;DHT22;12042;52.136;5.584;2022-11-15T19:51:14;11.70;99.90
23723;DHT22;12042;52.136;5.584;2022-11-15T19:53:40;11.70;99.90
23723;DHT22;12042;52.136;5.584;2022-11-15T19:56:11;11.70;99.90
23723;DHT22;12042;52.136;5.584;2022-11-15T19:58:38;11.70;99.90
23723;DHT22;12042;52.136;5.584;2022-11-15T20:01:13;11.70;99.90
23723;DHT22;12042;52.136;5.584;2022-11-15T20:03:40;11.70;99.90
23723;DHT22;12042;52.136;5.584;2022-11-15T20:06:08;11.70;99.90
23723;DHT22;12042;52.136;5.584;2022-11-15T20:08:35;11.70;99.90
23723;DHT22;12042;52.136;5.584;2022-11-15T20:11:01;11.60;99.90
23723;DHT22;12042;52.136;5.584;2022-11-15T20:13:28;11.70;99.90
23723;DHT22;12042;52.136;5.584;2022-11-15T20:15:53;11.70;99.90
23723;DHT22;12042;52.136;5.584;2022-11-15T20:18:20;11.70;99.90
23723;DHT22;12042;52.136;5.584;2022-11-15T20:20:46;11.70;99.90
23723;DHT22;12042;52.136;5.584;2022-11-15T20:23:12;11.70;99.90
23723;DHT22;12042;52.136;5.584;2022-11-15T20:25:38;11.70;99.90
23723;DHT22;12042;52.136;5.584;2022-11-15T20:28:05;11.70;99.90
23723;DHT22;12042;52.136;5.584;2022-11-15T20:30:34;11.70;99.90
23723;DHT22;12042;52.136;5.584;2022-11-15T20:33:00;11.80;99.90
23723;DHT22;12042;52.136;5.584;2022-11-15T20:35:25;11.70;99.90
23723;DHT22;12042;52.136;5.584;2022-11-15T20:37:51;11.70;99.90
23723;DHT22;12042;52.136;5.584;2022-11-15T20:40:16;11.70;99.90
23723;DHT22;12042;52.136;5.584;2022-11-15T20:42:42;11.70;99.90
23723;DHT22;12042;52.136;5.584;2022-11-15T20:45:08;11.70;99.90
23723;DHT22;12042;52.136;5.584;2022-11-15T20:47:33;11.70;99.90
23723;DHT22;12042;52.136;5.584;2022-11-15T20:49:59;11.70;99.90
23723;DHT22;12042;52.136;5.584;2022-11-15T20:52:25;11.70;99.90
23723;DHT22;12042;52.136;5.584;2022-11-15T20:54:50;11.70;99.90
23723;DHT22;12042;52.136;5.584;2022-11-15T20:57:16;11.70;99.90
23723;DHT22;12042;52.136;5.584;2022-11-15T20:59:42;11.70;99.90
23723;DHT22;12042;52.136;5.584;2022-11-15T21:02:14;11.70;99.90
23723;DHT22;12042;52.136;5.584;2022-11-15T21:04:40;11.60;99.90
23723;DHT22;12042;52.136;5.584;2022-11-15T21:07:06;11.70;99.90
23723;DHT22;12042;52.136;5.584;2022-11-15T21:09:32;11.60;99.90
23723;DHT22;12042;52.136;5.584;2022-11-15T21:12:16;11.70;99.90
23723;DHT22;12042;52.136;5.584;2022-11-15T21:14:43;11.70;99.90
23723;DHT22;12042;52.136;5.584;2022-11-15T21:17:09;11.70;99.90
23723;DHT22;12042;52.136;5.584;2022-11-15T21:19:35;11.70;99.90
23723;DHT22;12042;52.136;5.584;2022-11-15T21:22:01;11.70;99.90
23723;DHT22;12042;52.136;5.584;2022-11-15T21:24:27;11.70;99.90
23723;DHT22;12042;52.136;5.584;2022-11-15T21:26:54;11.70;99.90
23723;DHT22;12042;52.136;5.584;2022-11-15T21:29:20;11.70;99.90
23723;DHT22;12042;52.136;5.584;2022-11-15T21:31:46;11.70;99.90
23723;DHT22;12042;52.136;5.584;2022-11-15T21:34:13;11.70;99.90
23723;DHT22;12042;52.136;5.584;2022-11-15T21:36:38;11.70;99.90
23723;DHT22;12042;52.136;5.584;2022-11-15T21:39:04;11.80;99.90
23723;DHT22;12042;52.136;5.584;2022-11-15T21:41:30;11.80;99.90
23723;DHT22;12042;52.136;5.584;2022-11-15T21:44:00;11.70;99.90
23723;DHT22;12042;52.136;5.584;2022-11-15T21:46:27;11.70;99.90
23723;DHT22;12042;52.136;5.584;2022-11-15T21:48:56;11.80;99.90
23723;DHT22;12042;52.136;5.584;2022-11-15T21:51:23;11.80;99.90
23723;DHT22;12042;52.136;5.584;2022-11-15T21:53:49;11.80;99.90
23723;DHT22;12042;52.136;5.584;2022-11-15T21:56:17;11.80;99.90
23723;DHT22;12042;52.136;5.584;2022-11-15T21:58:43;11.80;99.90
23723;DHT22;12042;52.136;5.584;2022-11-15T22:01:09;11.80;99.90
23723;DHT22;12042;52.136;5.584;2022-11-15T22:03:54;11.80;99.90
23723;DHT22;12042;52.136;5.584;2022-11-15T22:06:19;11.80;99.90
23723;DHT22;12042;52.136;5.584;2022-11-15T22:08:45;11.80;99.90
23723;DHT22;12042;52.136;5.584;2022-11-15T22:11:11;11.80;99.90
23723;DHT22;12042;52.136;5.584;2022-11-15T22:13:37;11.80;99.90
23723;DHT22;12042;52.136;5.584;2022-11-15T22:16:02;11.80;99.90
23723;DHT22;12042;52.136;5.584;2022-11-15T22:18:28;11.80;99.90
23723;DHT22;12042;52.136;5.584;2022-11-15T22:23:22;11.80;99.90
23723;DHT22;12042;52.136;5.584;2022-11-15T22:25:48;11.80;99.90
23723;DHT22;12042;52.136;5.584;2022-11-15T22:28:14;11.90;99.90
23723;DHT22;12042;52.136;5.584;2022-11-15T22:30:40;11.90;99.90
23723;DHT22;12042;52.136;5.584;2022-11-15T22:33:07;11.90;99.90
23723;DHT22;12042;52.136;5.584;2022-11-15T22:35:36;11.90;99.90
23723;DHT22;12042;52.136;5.584;2022-11-15T22:38:02;11.80;99.90
23723;DHT22;12042;52.136;5.584;2022-11-15T22:40:28;11.80;99.90
23723;DHT22;12042;52.136;5.584;2022-11-15T22:42:54;11.80;99.90
23723;DHT22;12042;52.136;5.584;2022-11-15T22:45:19;11.90;99.90
23723;DHT22;12042;52.136;5.584;2022-11-15T22:47:45;11.90;99.90
23723;DHT22;12042;52.136;5.584;2022-11-15T22:50:10;11.80;99.90
23723;DHT22;12042;52.136;5.584;2022-11-15T22:52:36;11.80;99.90
23723;DHT22;12042;52.136;5.584;2022-11-15T22:55:02;11.80;99.90
23723;DHT22;12042;52.136;5.584;2022-11-15T22:57:27;11.80;99.90
23723;DHT22;12042;52.136;5.584;2022-11-15T22:59:53;11.80;99.90
